Las Vegas, Nevada
Traffic Map
Current Weather Conditions
Las Vegas, Nevada
Clear
Clear
22°
Feels Like: 22°
Wind Chill: 22° Ceiling: Unl
Heat Index: 22° Visibility: 10mi
Dew Point: -12° Wind: 9mph
Humidity: 10% Direction: 360° (N)
Pressure: 29.9in Gusts: 20mph
Raw Report DataKLAS 231956Z 36008G17KT 340V050 10SM CLR 22/M12 A2990 RMK AO2 SLP107 T02221117
Traffic Incident Summary
Active as of:
Severity:
Category:
InformationThere was an issue retrieving the traffic information for this location. Please try a different location or try again shortly.
Advertisements
At Last! Intellicast now available for iPhone and Android